Time;durP1;ratioP1;P1;durP2;ratioP2;P2;SDS_P1;SDS_P2;PMS_P1;PMS_P2;Temp;Humidity;BMP_temperature;BMP_pressure;BME280_temperature;BME280_humidity;BME280_pressure;Samples;Min_cycle;Max_cycle;Signal;HPM_P1;HPM_P2
2023/04/11 00:01:48;;;;;;;;;;;12.80;94.60;;;;;;4924316;29;20689;-78
2023/04/11 00:04:15;;;;;;;;;;;12.70;96.50;;;;;;4955918;28;19925;-78
2023/04/11 00:06:41;;;;;;;;;;;12.50;98.70;;;;;;4909312;29;20430;-78
2023/04/11 00:09:07;;;;;;;;;;;12.30;99.90;;;;;;4924562;29;20001;-78
2023/04/11 00:11:33;;;;;;;;;;;12.10;99.90;;;;;;4893463;29;19916;-78
2023/04/11 00:13:59;;;;;;;;;;;12.10;99.90;;;;;;4950921;29;19911;-78
2023/04/11 00:16:25;;;;;;;;;;;11.80;99.90;;;;;;4906274;29;20352;-78
2023/04/11 00:18:51;;;;;;;;;;;11.80;99.90;;;;;;4910649;29;19918;-78
2023/04/11 00:21:16;;;;;;;;;;;11.60;99.90;;;;;;4949238;29;20302;-78
2023/04/11 00:23:42;;;;;;;;;;;11.70;99.90;;;;;;4932641;29;19997;-78
2023/04/11 00:26:08;;;;;;;;;;;11.50;99.90;;;;;;4937141;29;19911;-78
2023/04/11 00:28:33;;;;;;;;;;;11.60;99.90;;;;;;4964607;28;20284;-78
2023/04/11 00:31:02;;;;;;;;;;;11.60;99.90;;;;;;4931299;29;19922;-78
2023/04/11 00:33:28;;;;;;;;;;;11.60;99.90;;;;;;4950442;28;20339;-79
2023/04/11 00:35:54;;;;;;;;;;;11.70;99.90;;;;;;4926782;29;19918;-78
2023/04/11 00:38:19;;;;;;;;;;;11.70;99.90;;;;;;4935550;29;20006;-78
2023/04/11 00:40:46;;;;;;;;;;;11.60;99.90;;;;;;4950424;29;19922;-78
2023/04/11 00:43:12;;;;;;;;;;;11.60;99.90;;;;;;4901771;29;19914;-79
2023/04/11 00:45:37;;;;;;;;;;;11.50;99.90;;;;;;4940514;28;19910;-78
2023/04/11 00:48:03;;;;;;;;;;;11.40;99.90;;;;;;4923977;29;19911;-78
2023/04/11 00:50:29;;;;;;;;;;;11.50;99.90;;;;;;4941451;29;20074;-79
2023/04/11 00:52:54;;;;;;;;;;;11.50;99.90;;;;;;4921397;29;19925;-79
2023/04/11 00:55:20;;;;;;;;;;;11.50;99.90;;;;;;4904692;29;19950;-76
2023/04/11 00:57:46;;;;;;;;;;;11.60;99.90;;;;;;4949924;29;19911;-77
2023/04/11 01:00:12;;;;;;;;;;;11.50;99.90;;;;;;4922080;29;19911;-79
2023/04/11 01:02:41;;;;;;;;;;;11.60;99.90;;;;;;4915566;29;20602;-79
2023/04/11 01:05:11;;;;;;;;;;;11.60;99.90;;;;;;4936719;29;19915;-79
2023/04/11 01:07:37;;;;;;;;;;;11.60;99.90;;;;;;4910363;29;19921;-77
2023/04/11 01:10:04;;;;;;;;;;;11.50;99.90;;;;;;4940367;29;19910;-76
2023/04/11 01:12:30;;;;;;;;;;;11.50;99.90;;;;;;4955886;29;19973;-78
2023/04/11 01:14:55;;;;;;;;;;;11.30;99.90;;;;;;4963820;28;19910;-77
2023/04/11 01:17:21;;;;;;;;;;;11.40;99.90;;;;;;4924592;29;20719;-79
2023/04/11 01:19:47;;;;;;;;;;;11.10;99.90;;;;;;4907914;29;19921;-79
2023/04/11 01:22:13;;;;;;;;;;;11.20;99.90;;;;;;4947035;29;19926;-77
2023/04/11 01:24:39;;;;;;;;;;;11.10;99.90;;;;;;4910639;29;19915;-78
2023/04/11 01:27:05;;;;;;;;;;;11.20;99.90;;;;;;4929284;29;19921;-78
2023/04/11 01:29:30;;;;;;;;;;;11.20;99.90;;;;;;4948551;29;20033;-78
2023/04/11 01:31:56;;;;;;;;;;;11.20;99.90;;;;;;4916405;29;20324;-78
2023/04/11 01:34:22;;;;;;;;;;;11.00;99.90;;;;;;4925674;29;19914;-78
2023/04/11 01:36:47;;;;;;;;;;;10.90;99.90;;;;;;4926607;29;19914;-78
2023/04/11 01:39:13;;;;;;;;;;;11.00;99.90;;;;;;4965249;28;19915;-78
2023/04/11 01:41:39;;;;;;;;;;;10.90;99.90;;;;;;4914231;29;19922;-78
2023/04/11 01:44:04;;;;;;;;;;;10.90;99.90;;;;;;4937013;29;20246;-78
2023/04/11 01:46:30;;;;;;;;;;;11.00;99.90;;;;;;4933215;29;19911;-78
2023/04/11 01:48:56;;;;;;;;;;;10.90;99.90;;;;;;4943222;29;19917;-78
2023/04/11 01:51:22;;;;;;;;;;;10.80;99.90;;;;;;4949605;29;19922;-78
2023/04/11 01:53:48;;;;;;;;;;;10.70;99.90;;;;;;4928791;29;19910;-78
2023/04/11 01:56:13;;;;;;;;;;;10.90;99.90;;;;;;4943523;29;19911;-78
2023/04/11 01:58:39;;;;;;;;;;;10.90;99.90;;;;;;4920561;29;19911;-78
2023/04/11 02:01:05;;;;;;;;;;;10.90;99.90;;;;;;4926163;29;19973;-78
2023/04/11 02:03:31;;;;;;;;;;;10.70;99.90;;;;;;4911269;29;20276;-78
2023/04/11 02:05:57;;;;;;;;;;;10.60;99.90;;;;;;4911641;29;19977;-79
2023/04/11 02:08:22;;;;;;;;;;;10.70;99.90;;;;;;4936610;29;19942;-79
2023/04/11 02:10:48;;;;;;;;;;;10.70;99.90;;;;;;4949208;29;19958;-79
2023/04/11 02:13:14;;;;;;;;;;;10.70;99.90;;;;;;4943847;29;19945;-79
2023/04/11 02:15:39;;;;;;;;;;;10.70;99.90;;;;;;4906914;29;20224;-79
2023/04/11 02:18:05;;;;;;;;;;;10.70;99.90;;;;;;4945661;29;19919;-79
2023/04/11 02:20:31;;;;;;;;;;;10.70;99.90;;;;;;4942578;29;19910;-78
2023/04/11 02:22:57;;;;;;;;;;;10.60;99.90;;;;;;4938892;29;19918;-78
2023/04/11 02:25:23;;;;;;;;;;;10.40;99.90;;;;;;4926126;29;19973;-78
2023/04/11 02:27:49;;;;;;;;;;;10.40;99.90;;;;;;4958906;28;20009;-77
2023/04/11 02:30:14;;;;;;;;;;;10.40;99.90;;;;;;4925581;29;19911;-78
2023/04/11 02:32:40;;;;;;;;;;;10.40;99.90;;;;;;4932759;29;20030;-77
2023/04/11 02:35:07;;;;;;;;;;;10.30;99.90;;;;;;4893256;29;19921;-77
2023/04/11 02:37:33;;;;;;;;;;;10.30;99.90;;;;;;4917142;29;19914;-77
2023/04/11 02:39:58;;;;;;;;;;;10.10;99.90;;;;;;4936287;29;20346;-77
2023/04/11 02:42:24;;;;;;;;;;;10.20;99.90;;;;;;4931924;29;20023;-78
2023/04/11 02:44:52;;;;;;;;;;;10.20;99.90;;;;;;4949077;29;19969;-77
2023/04/11 02:47:18;;;;;;;;;;;10.10;99.90;;;;;;4937125;29;20364;-77
2023/04/11 02:49:43;;;;;;;;;;;10.10;99.90;;;;;;4937655;29;19974;-78
2023/04/11 02:52:10;;;;;;;;;;;10.10;99.90;;;;;;4958344;28;19922;-78
2023/04/11 02:54:35;;;;;;;;;;;10.10;99.90;;;;;;4942131;29;19911;-78
2023/04/11 02:57:02;;;;;;;;;;;10.10;99.90;;;;;;4950874;29;19911;-77
2023/04/11 02:59:28;;;;;;;;;;;10.10;99.90;;;;;;4925245;29;19917;-77
2023/04/11 03:01:57;;;;;;;;;;;10.20;99.90;;;;;;4969393;28;19914;-77
2023/04/11 03:04:23;;;;;;;;;;;10.10;99.90;;;;;;4953142;28;19957;-77
2023/04/11 03:06:49;;;;;;;;;;;10.10;99.90;;;;;;4932065;29;19965;-77
2023/04/11 03:09:14;;;;;;;;;;;10.00;99.90;;;;;;4946695;29;19962;-77
2023/04/11 03:11:40;;;;;;;;;;;10.00;99.90;;;;;;4966962;28;19914;-77
2023/04/11 03:14:06;;;;;;;;;;;10.00;99.90;;;;;;4961214;28;20005;-77
2023/04/11 03:16:32;;;;;;;;;;;10.00;99.90;;;;;;4944725;29;19914;-77
2023/04/11 03:18:57;;;;;;;;;;;10.00;99.90;;;;;;4970933;28;20518;-77
2023/04/11 03:21:23;;;;;;;;;;;9.90;99.90;;;;;;4903994;29;19921;-76
2023/04/11 03:23:49;;;;;;;;;;;9.90;99.90;;;;;;4918175;29;19918;-77
2023/04/11 03:26:14;;;;;;;;;;;9.80;99.90;;;;;;4893295;29;19958;-77
2023/04/11 03:28:40;;;;;;;;;;;9.90;99.90;;;;;;4951122;29;19925;-77
2023/04/11 03:31:06;;;;;;;;;;;9.80;99.90;;;;;;4954934;29;20339;-76
2023/04/11 03:33:31;;;;;;;;;;;9.90;99.90;;;;;;4928366;29;20384;-77
2023/04/11 03:35:57;;;;;;;;;;;9.80;99.90;;;;;;4973772;28;19915;-77
2023/04/11 03:38:23;;;;;;;;;;;9.70;99.90;;;;;;4951598;29;20240;-77
2023/04/11 03:40:49;;;;;;;;;;;9.80;99.90;;;;;;4950955;29;20861;-76
2023/04/11 03:43:15;;;;;;;;;;;9.90;99.90;;;;;;4919565;29;20382;-76
2023/04/11 03:45:41;;;;;;;;;;;9.80;99.90;;;;;;4942030;29;19911;-77
2023/04/11 03:48:07;;;;;;;;;;;9.80;99.90;;;;;;4925494;29;20023;-76
2023/04/11 03:50:32;;;;;;;;;;;9.70;99.90;;;;;;4960999;28;19969;-77
2023/04/11 03:52:58;;;;;;;;;;;9.60;99.90;;;;;;4967707;28;19915;-77
2023/04/11 03:55:24;;;;;;;;;;;9.70;99.90;;;;;;4922956;29;19915;-76
2023/04/11 03:57:50;;;;;;;;;;;9.60;99.90;;;;;;4921680;29;19930;-77
2023/04/11 04:00:17;;;;;;;;;;;9.60;99.90;;;;;;4935490;29;19914;-77
2023/04/11 04:02:43;;;;;;;;;;;9.50;99.90;;;;;;4956666;28;20318;-77
2023/04/11 04:05:09;;;;;;;;;;;9.60;99.90;;;;;;4926012;29;20009;-76
2023/04/11 04:07:36;;;;;;;;;;;9.50;99.90;;;;;;4925548;29;19923;-76
2023/04/11 04:10:02;;;;;;;;;;;9.40;99.90;;;;;;4964795;28;20076;-76
2023/04/11 04:12:35;;;;;;;;;;;9.50;99.90;;;;;;4949929;29;20001;-76
2023/04/11 04:15:01;;;;;;;;;;;9.60;99.90;;;;;;4936093;29;19922;-78
2023/04/11 04:17:26;;;;;;;;;;;9.50;99.90;;;;;;4930731;29;19914;-77
2023/04/11 04:19:52;;;;;;;;;;;9.50;99.90;;;;;;4942228;29;19946;-77
2023/04/11 04:22:18;;;;;;;;;;;9.50;99.90;;;;;;4959067;28;20347;-77
2023/04/11 04:24:46;;;;;;;;;;;9.60;99.90;;;;;;4908730;29;20358;-77
2023/04/11 04:27:18;;;;;;;;;;;9.60;99.90;;;;;;4899367;29;20350;-76
2023/04/11 04:29:46;;;;;;;;;;;9.50;99.90;;;;;;4933496;29;19922;-76
2023/04/11 04:32:13;;;;;;;;;;;9.60;99.90;;;;;;4944168;29;19941;-77
2023/04/11 04:34:45;;;;;;;;;;;9.60;99.90;;;;;;4933158;29;19973;-76
2023/04/11 04:37:20;;;;;;;;;;;9.60;99.90;;;;;;4922530;29;19949;-76
2023/04/11 04:39:49;;;;;;;;;;;9.60;99.90;;;;;;4906251;29;19950;-76
2023/04/11 04:42:16;;;;;;;;;;;9.60;99.90;;;;;;4925236;29;20272;-76
2023/04/11 04:44:42;;;;;;;;;;;9.60;99.90;;;;;;4933023;29;19918;-76
2023/04/11 04:47:08;;;;;;;;;;;9.50;99.90;;;;;;4932842;29;19921;-77
2023/04/11 04:49:34;;;;;;;;;;;9.60;99.90;;;;;;4926966;29;20581;-77
2023/04/11 04:52:00;;;;;;;;;;;9.60;99.90;;;;;;4934046;29;19910;-76
2023/04/11 04:54:25;;;;;;;;;;;9.60;99.90;;;;;;4946434;29;20321;-76
2023/04/11 04:56:51;;;;;;;;;;;9.60;99.90;;;;;;4941519;29;19915;-77
2023/04/11 04:59:17;;;;;;;;;;;9.70;99.90;;;;;;4919129;29;20001;-77
2023/04/11 05:01:43;;;;;;;;;;;9.70;99.90;;;;;;4946147;28;19919;-77
2023/04/11 05:04:08;;;;;;;;;;;9.70;99.90;;;;;;4956685;28;20667;-77
2023/04/11 05:06:34;;;;;;;;;;;9.70;99.90;;;;;;4946761;29;19914;-78
2023/04/11 05:09:00;;;;;;;;;;;9.60;99.90;;;;;;4920484;29;19918;-78
2023/04/11 05:11:26;;;;;;;;;;;9.60;99.90;;;;;;4939993;29;19993;-78
2023/04/11 05:13:52;;;;;;;;;;;9.60;99.90;;;;;;4942966;29;19922;-78
2023/04/11 05:16:17;;;;;;;;;;;9.60;99.90;;;;;;4937675;29;19911;-79
2023/04/11 05:18:43;;;;;;;;;;;9.50;99.90;;;;;;4899479;29;19929;-79
2023/04/11 05:21:09;;;;;;;;;;;9.50;99.90;;;;;;4918071;29;19930;-78
2023/04/11 05:23:34;;;;;;;;;;;9.40;99.90;;;;;;4943313;29;20291;-79
2023/04/11 05:26:00;;;;;;;;;;;9.30;99.90;;;;;;4933490;29;19969;-79
2023/04/11 05:28:26;;;;;;;;;;;9.30;99.90;;;;;;4950408;29;19921;-77
2023/04/11 05:30:52;;;;;;;;;;;9.30;99.90;;;;;;4965680;28;19921;-76
2023/04/11 05:33:17;;;;;;;;;;;9.00;99.90;;;;;;4943491;29;20009;-78
2023/04/11 05:35:43;;;;;;;;;;;8.90;99.90;;;;;;4946092;29;19946;-78
2023/04/11 05:38:09;;;;;;;;;;;8.80;99.90;;;;;;4933928;29;19914;-78
2023/04/11 05:40:35;;;;;;;;;;;8.70;99.90;;;;;;4915122;29;19917;-78
2023/04/11 05:43:01;;;;;;;;;;;8.70;99.90;;;;;;4911783;29;20004;-78
2023/04/11 05:45:27;;;;;;;;;;;8.50;99.90;;;;;;4924093;29;20313;-78
2023/04/11 05:47:52;;;;;;;;;;;8.50;99.90;;;;;;4940016;29;19911;-79
2023/04/11 05:50:18;;;;;;;;;;;8.40;99.90;;;;;;4941407;29;20331;-79
2023/04/11 05:52:43;;;;;;;;;;;8.50;99.90;;;;;;4964428;28;20013;-79
2023/04/11 05:55:09;;;;;;;;;;;8.30;99.90;;;;;;4938436;29;19950;-79
2023/04/11 05:57:35;;;;;;;;;;;8.40;99.90;;;;;;4917479;29;19911;-79
2023/04/11 06:00:01;;;;;;;;;;;8.50;99.90;;;;;;4895783;29;19914;-79
2023/04/11 06:02:27;;;;;;;;;;;8.50;99.90;;;;;;4929157;29;19922;-76
2023/04/11 06:04:53;;;;;;;;;;;8.40;99.90;;;;;;4949709;29;20417;-76
2023/04/11 06:07:18;;;;;;;;;;;8.50;99.90;;;;;;4948423;29;19942;-76
2023/04/11 06:09:44;;;;;;;;;;;8.60;99.90;;;;;;4941057;29;19946;-76
2023/04/11 06:12:10;;;;;;;;;;;8.60;99.90;;;;;;4953005;28;20311;-76
2023/04/11 06:14:36;;;;;;;;;;;8.60;99.90;;;;;;4946897;29;19997;-75
2023/04/11 06:17:01;;;;;;;;;;;8.60;99.90;;;;;;4930381;29;19921;-76
2023/04/11 06:19:27;;;;;;;;;;;8.70;99.90;;;;;;4916944;29;19926;-77
2023/04/11 06:21:53;;;;;;;;;;;8.50;99.90;;;;;;4942186;29;19914;-78
2023/04/11 06:24:20;;;;;;;;;;;8.60;99.90;;;;;;4918550;29;19921;-76
2023/04/11 06:26:46;;;;;;;;;;;8.50;99.90;;;;;;4910786;29;19911;-77
2023/04/11 06:29:12;;;;;;;;;;;8.50;99.90;;;;;;4903295;29;19910;-77
2023/04/11 06:31:38;;;;;;;;;;;8.50;99.90;;;;;;4949154;29;19921;-77
2023/04/11 06:34:04;;;;;;;;;;;8.50;99.90;;;;;;4926373;29;19960;-77
2023/04/11 06:36:30;;;;;;;;;;;8.60;99.90;;;;;;4905113;29;19914;-77
2023/04/11 06:38:56;;;;;;;;;;;8.60;99.90;;;;;;4947339;29;20239;-76
2023/04/11 06:41:21;;;;;;;;;;;8.60;99.90;;;;;;4890008;29;19910;-77
2023/04/11 06:43:47;;;;;;;;;;;8.60;99.90;;;;;;4935537;29;20295;-77
2023/04/11 06:46:12;;;;;;;;;;;8.80;99.90;;;;;;4939737;29;20390;-77
2023/04/11 06:48:38;;;;;;;;;;;8.90;99.90;;;;;;4930341;29;19921;-77
2023/04/11 06:51:04;;;;;;;;;;;9.00;99.90;;;;;;4924287;29;19914;-76
2023/04/11 06:53:30;;;;;;;;;;;9.10;99.90;;;;;;4926684;29;19911;-77
2023/04/11 06:55:56;;;;;;;;;;;9.20;99.90;;;;;;4895607;29;19937;-76
2023/04/11 06:58:22;;;;;;;;;;;8.90;99.90;;;;;;4942429;29;19949;-78
2023/04/11 07:00:48;;;;;;;;;;;8.50;99.90;;;;;;4908359;29;19981;-78
2023/04/11 07:03:13;;;;;;;;;;;8.40;99.90;;;;;;4948714;29;20351;-78
2023/04/11 07:05:40;;;;;;;;;;;8.50;99.90;;;;;;4947837;29;20025;-78
2023/04/11 07:08:06;;;;;;;;;;;8.50;99.90;;;;;;4958519;29;20062;-76
2023/04/11 07:10:31;;;;;;;;;;;8.40;99.90;;;;;;4946828;29;20359;-78
2023/04/11 07:12:57;;;;;;;;;;;8.30;99.90;;;;;;4913547;29;19910;-78
2023/04/11 07:15:23;;;;;;;;;;;8.20;99.90;;;;;;4929764;29;20558;-78
2023/04/11 07:17:48;;;;;;;;;;;8.20;99.90;;;;;;4911509;29;20698;-78
2023/04/11 07:20:15;;;;;;;;;;;8.20;99.90;;;;;;4913341;29;20543;-79
2023/04/11 07:22:42;;;;;;;;;;;8.10;99.90;;;;;;4926272;29;20343;-78
2023/04/11 07:25:07;;;;;;;;;;;8.10;99.90;;;;;;4948755;29;19914;-77
2023/04/11 07:27:35;;;;;;;;;;;7.80;99.90;;;;;;4951404;28;20627;-76
2023/04/11 07:30:04;;;;;;;;;;;7.70;99.90;;;;;;4941228;29;19922;-77
2023/04/11 07:32:29;;;;;;;;;;;7.60;99.90;;;;;;4936126;29;19922;-77
2023/04/11 07:34:55;;;;;;;;;;;7.40;99.90;;;;;;4920902;29;19911;-78
2023/04/11 07:37:21;;;;;;;;;;;7.20;99.90;;;;;;4936801;29;20255;-77
2023/04/11 07:39:47;;;;;;;;;;;7.30;99.90;;;;;;4941221;28;19915;-77
2023/04/11 07:42:13;;;;;;;;;;;7.20;99.90;;;;;;4922857;29;20225;-77
2023/04/11 07:44:38;;;;;;;;;;;7.20;99.90;;;;;;4921427;29;19911;-78
2023/04/11 07:47:04;;;;;;;;;;;7.30;99.90;;;;;;4926391;29;19915;-77
2023/04/11 07:49:30;;;;;;;;;;;7.30;99.90;;;;;;4924117;29;19948;-78
2023/04/11 07:51:55;;;;;;;;;;;7.20;99.90;;;;;;4915231;29;19911;-77
2023/04/11 07:54:24;;;;;;;;;;;7.10;99.90;;;;;;4929869;29;19925;-77
2023/04/11 07:56:50;;;;;;;;;;;7.00;99.90;;;;;;4924113;29;19957;-77
2023/04/11 07:59:16;;;;;;;;;;;7.00;99.90;;;;;;4919238;29;19946;-78
2023/04/11 08:01:41;;;;;;;;;;;6.90;99.90;;;;;;4909588;29;19919;-77
2023/04/11 08:04:07;;;;;;;;;;;6.90;99.90;;;;;;4913622;29;19921;-77
2023/04/11 08:06:33;;;;;;;;;;;6.90;99.90;;;;;;4910586;29;20034;-77
2023/04/11 08:08:59;;;;;;;;;;;6.90;99.90;;;;;;4903010;29;19922;-77
2023/04/11 08:11:25;;;;;;;;;;;7.00;99.90;;;;;;4959050;28;19985;-78
2023/04/11 08:13:50;;;;;;;;;;;7.00;99.90;;;;;;4919892;29;20002;-78
2023/04/11 08:16:16;;;;;;;;;;;7.20;99.90;;;;;;4912210;29;19921;-78
2023/04/11 08:18:44;;;;;;;;;;;7.30;99.90;;;;;;4910125;29;19923;-77
2023/04/11 08:21:10;;;;;;;;;;;7.40;99.90;;;;;;4910515;29;19997;-77
2023/04/11 08:23:36;;;;;;;;;;;7.40;99.90;;;;;;4914425;29;20017;-77
2023/04/11 08:26:01;;;;;;;;;;;7.50;99.90;;;;;;4908868;29;20642;-77
2023/04/11 08:28:27;;;;;;;;;;;7.50;99.90;;;;;;4929373;29;19989;-76
2023/04/11 08:30:57;;;;;;;;;;;7.60;99.90;;;;;;4929627;29;19911;-76
2023/04/11 08:33:23;;;;;;;;;;;7.70;99.90;;;;;;4929583;29;20660;-75
2023/04/11 08:35:49;;;;;;;;;;;7.80;99.90;;;;;;4918477;29;19915;-75
2023/04/11 08:38:15;;;;;;;;;;;8.00;99.90;;;;;;4912229;29;19926;-75
2023/04/11 08:40:40;;;;;;;;;;;8.10;99.90;;;;;;4929074;29;19922;-74
2023/04/11 08:43:10;;;;;;;;;;;8.20;99.90;;;;;;4953280;28;19918;-75
2023/04/11 08:45:40;;;;;;;;;;;8.30;99.90;;;;;;4954317;28;19997;-74
2023/04/11 08:48:06;;;;;;;;;;;8.30;99.90;;;;;;4936284;29;19974;-75
2023/04/11 08:50:32;;;;;;;;;;;8.40;99.90;;;;;;4928403;29;19930;-77
2023/04/11 08:53:02;;;;;;;;;;;8.50;99.90;;;;;;4945680;29;19925;-76
2023/04/11 08:55:28;;;;;;;;;;;8.70;99.90;;;;;;4908032;29;19914;-75
2023/04/11 08:57:57;;;;;;;;;;;8.90;99.90;;;;;;4927158;29;20410;-75
2023/04/11 09:00:23;;;;;;;;;;;8.90;99.90;;;;;;4923991;29;19911;-76
2023/04/11 09:02:53;;;;;;;;;;;9.00;99.90;;;;;;4936054;28;19977;-75
2023/04/11 09:05:32;;;;;;;;;;;9.10;99.90;;;;;;4944433;29;19946;-75
2023/04/11 09:07:58;;;;;;;;;;;9.10;99.90;;;;;;4914021;29;19911;-75
2023/04/11 09:10:24;;;;;;;;;;;9.20;99.90;;;;;;4933805;29;19978;-75
2023/04/11 09:12:51;;;;;;;;;;;9.40;99.90;;;;;;4905410;29;20792;-75
2023/04/11 09:15:21;;;;;;;;;;;9.50;99.90;;;;;;4912270;29;20341;-75
2023/04/11 09:17:46;;;;;;;;;;;9.50;99.90;;;;;;4933915;29;19958;-75
2023/04/11 09:20:19;;;;;;;;;;;9.70;99.90;;;;;;4916507;29;20273;-75
2023/04/11 09:22:45;;;;;;;;;;;9.70;99.90;;;;;;4923535;29;20300;-75
2023/04/11 09:25:11;;;;;;;;;;;9.70;99.90;;;;;;4906686;29;19922;-75
2023/04/11 09:27:36;;;;;;;;;;;9.70;99.90;;;;;;4931064;29;20387;-75
2023/04/11 09:30:04;;;;;;;;;;;9.70;99.90;;;;;;4924137;29;19969;-75
2023/04/11 09:32:33;;;;;;;;;;;9.80;99.90;;;;;;4948319;28;20423;-75
2023/04/11 09:35:22;;;;;;;;;;;9.90;99.90;;;;;;4929459;29;19915;-75
2023/04/11 09:37:48;;;;;;;;;;;9.90;99.90;;;;;;4924108;29;20559;-75
2023/04/11 09:40:15;;;;;;;;;;;9.80;99.90;;;;;;4906797;29;20049;-75
2023/04/11 09:42:41;;;;;;;;;;;9.90;99.90;;;;;;4927017;29;19925;-75
2023/04/11 09:45:17;;;;;;;;;;;10.10;99.90;;;;;;4924162;29;19910;-75
2023/04/11 09:47:43;;;;;;;;;;;10.10;99.90;;;;;;4922739;29;19939;-75
2023/04/11 09:50:08;;;;;;;;;;;10.10;99.90;;;;;;4906000;29;19914;-75
2023/04/11 09:52:34;;;;;;;;;;;10.20;99.90;;;;;;4924744;29;20633;-75
2023/04/11 09:55:03;;;;;;;;;;;10.10;99.90;;;;;;4917341;29;20003;-74
2023/04/11 09:57:29;;;;;;;;;;;10.10;99.90;;;;;;4927795;29;20871;-75
2023/04/11 09:59:54;;;;;;;;;;;10.00;99.90;;;;;;4916805;29;19945;-75
2023/04/11 10:02:20;;;;;;;;;;;10.00;99.90;;;;;;4939046;29;19929;-74
2023/04/11 10:04:46;;;;;;;;;;;10.20;99.90;;;;;;4906458;29;20235;-75
2023/04/11 10:07:12;;;;;;;;;;;10.30;99.90;;;;;;4899298;29;19950;-75
2023/04/11 10:09:39;;;;;;;;;;;10.30;99.90;;;;;;4922869;29;19950;-75
2023/04/11 10:12:05;;;;;;;;;;;10.30;99.90;;;;;;4910889;29;19914;-75
2023/04/11 10:14:37;;;;;;;;;;;10.40;99.90;;;;;;4921288;29;19915;-75
2023/04/11 10:17:19;;;;;;;;;;;10.40;99.90;;;;;;4926965;29;19911;-75
2023/04/11 10:19:45;;;;;;;;;;;10.40;99.90;;;;;;4924325;29;19922;-75
2023/04/11 10:22:31;;;;;;;;;;;10.50;99.90;;;;;;4908972;29;19919;-74
2023/04/11 10:25:15;;;;;;;;;;;10.70;99.90;;;;;;4920206;29;19930;-75
2023/04/11 10:27:45;;;;;;;;;;;10.70;99.90;;;;;;4935201;29;20335;-75
2023/04/11 10:30:11;;;;;;;;;;;10.70;99.90;;;;;;4933706;29;19918;-75
2023/04/11 10:32:37;;;;;;;;;;;10.70;99.90;;;;;;4942042;29;19911;-75
2023/04/11 10:35:18;;;;;;;;;;;10.90;99.90;;;;;;4922407;29;20384;-76
2023/04/11 10:37:44;;;;;;;;;;;11.10;99.90;;;;;;4936380;29;20005;-75
2023/04/11 10:40:10;;;;;;;;;;;11.00;99.90;;;;;;4924854;29;20017;-75
2023/04/11 10:42:37;;;;;;;;;;;10.80;99.90;;;;;;4929526;29;20017;-75
2023/04/11 10:45:23;;;;;;;;;;;10.80;99.90;;;;;;4903997;29;19915;-75
2023/04/11 10:47:55;;;;;;;;;;;10.80;99.90;;;;;;4911541;29;19914;-75
2023/04/11 10:50:30;;;;;;;;;;;10.40;99.90;;;;;;4921377;29;20017;-76
2023/04/11 10:52:56;;;;;;;;;;;9.30;99.90;;;;;;4932216;29;20344;-76
2023/04/11 10:55:21;;;;;;;;;;;8.60;99.90;;;;;;4931394;29;19911;-75
2023/04/11 10:58:06;;;;;;;;;;;8.60;99.90;;;;;;4927578;29;19921;-75
2023/04/11 11:00:48;;;;;;;;;;;8.70;99.90;;;;;;4909020;29;19997;-75
2023/04/11 11:03:20;;;;;;;;;;;8.70;99.90;;;;;;4925483;29;19938;-76
2023/04/11 11:05:46;;;;;;;;;;;8.90;99.90;;;;;;4904287;29;20341;-76
2023/04/11 11:08:12;;;;;;;;;;;9.10;99.90;;;;;;4920818;29;19915;-74
2023/04/11 11:10:42;;;;;;;;;;;9.40;99.90;;;;;;4936004;29;20371;-74
2023/04/11 11:13:07;;;;;;;;;;;9.50;99.90;;;;;;4943735;29;20049;-75
2023/04/11 11:15:36;;;;;;;;;;;9.80;99.90;;;;;;4912540;29;20001;-74
2023/04/11 11:18:03;;;;;;;;;;;10.00;99.90;;;;;;4846290;29;1152997;-74
2023/04/11 11:20:28;;;;;;;;;;;10.30;99.90;;;;;;4951787;29;19911;-74
2023/04/11 11:23:00;;;;;;;;;;;10.40;99.90;;;;;;4911193;29;19941;-74
2023/04/11 11:25:26;;;;;;;;;;;10.70;99.90;;;;;;4916680;29;20418;-74
2023/04/11 11:27:59;;;;;;;;;;;10.80;99.90;;;;;;4927181;29;19941;-75
2023/04/11 11:30:26;;;;;;;;;;;11.00;99.90;;;;;;4931063;29;19911;-75
2023/04/11 11:32:52;;;;;;;;;;;11.30;99.90;;;;;;4893811;29;19928;-75
2023/04/11 11:35:18;;;;;;;;;;;11.40;99.90;;;;;;4961340;28;20035;-75
2023/04/11 11:37:44;;;;;;;;;;;11.60;99.90;;;;;;4944164;29;19915;-75
2023/04/11 11:40:12;;;;;;;;;;;11.60;99.90;;;;;;4934283;29;19967;-74
2023/04/11 11:42:38;;;;;;;;;;;11.50;99.90;;;;;;4937511;29;19997;-75
2023/04/11 11:45:20;;;;;;;;;;;11.40;99.90;;;;;;4932524;29;20084;-75
2023/04/11 11:47:47;;;;;;;;;;;11.00;99.90;;;;;;4904063;29;20004;-76
2023/04/11 11:50:28;;;;;;;;;;;10.80;99.90;;;;;;4964713;28;19918;-75
2023/04/11 11:52:54;;;;;;;;;;;11.00;99.90;;;;;;4936589;29;19912;-75
2023/04/11 11:55:21;;;;;;;;;;;11.30;99.90;;;;;;4903357;29;19966;-75
2023/04/11 11:57:47;;;;;;;;;;;11.40;96.30;;;;;;4915021;29;19966;-75
2023/04/11 12:00:13;;;;;;;;;;;11.60;95.30;;;;;;4898101;29;19943;-74
2023/04/11 12:02:40;;;;;;;;;;;11.60;95.30;;;;;;4883996;29;19947;-76
2023/04/11 12:05:06;;;;;;;;;;;11.60;92.80;;;;;;4924677;29;19914;-75
2023/04/11 12:07:33;;;;;;;;;;;11.70;93.20;;;;;;4901688;29;19911;-74
2023/04/11 12:10:02;;;;;;;;;;;11.70;92.30;;;;;;4918859;29;19970;-74
2023/04/11 12:12:35;;;;;;;;;;;12.00;93.00;;;;;;4902310;29;19962;-74
2023/04/11 12:15:01;;;;;;;;;;;12.00;91.50;;;;;;4918072;29;19969;-75
2023/04/11 12:17:32;;;;;;;;;;;11.70;91.10;;;;;;4926568;29;20248;-75
2023/04/11 12:20:01;;;;;;;;;;;11.70;90.50;;;;;;4945403;29;20251;-74
2023/04/11 12:22:26;;;;;;;;;;;11.70;90.40;;;;;;4913711;29;19919;-74
2023/04/11 12:24:53;;;;;;;;;;;11.80;90.80;;;;;;4943897;29;19926;-74
2023/04/11 12:27:19;;;;;;;;;;;12.20;91.20;;;;;;4943158;29;19961;-75
2023/04/11 12:29:45;;;;;;;;;;;12.20;86.70;;;;;;4952884;29;19958;-75
2023/04/11 12:32:11;;;;;;;;;;;12.10;87.40;;;;;;4912653;29;19925;-75
2023/04/11 12:34:36;;;;;;;;;;;12.40;85.70;;;;;;4916183;29;19921;-75
2023/04/11 12:37:02;;;;;;;;;;;12.50;83.00;;;;;;4913314;29;19921;-74
2023/04/11 12:39:28;;;;;;;;;;;12.30;83.60;;;;;;4949607;29;19915;-74
2023/04/11 12:41:53;;;;;;;;;;;12.40;85.40;;;;;;4922670;29;19937;-76
2023/04/11 12:44:19;;;;;;;;;;;12.30;84.00;;;;;;4966878;28;19918;-74
2023/04/11 12:46:45;;;;;;;;;;;12.30;84.30;;;;;;4931186;29;19921;-74
2023/04/11 12:49:11;;;;;;;;;;;12.50;84.90;;;;;;4928805;29;19914;-75
2023/04/11 12:51:37;;;;;;;;;;;12.60;84.10;;;;;;4927642;29;19915;-76
2023/04/11 12:54:03;;;;;;;;;;;12.70;82.70;;;;;;4911572;29;20347;-76
2023/04/11 12:56:29;;;;;;;;;;;12.80;81.40;;;;;;4912547;29;19921;-75
2023/04/11 12:58:55;;;;;;;;;;;12.70;76.90;;;;;;4926257;29;19914;-76
2023/04/11 13:01:22;;;;;;;;;;;12.60;78.50;;;;;;4933874;29;19942;-75
2023/04/11 13:03:47;;;;;;;;;;;12.80;80.60;;;;;;4907943;29;19925;-75
2023/04/11 13:06:13;;;;;;;;;;;12.80;76.20;;;;;;4934663;29;19910;-75
2023/04/11 13:08:39;;;;;;;;;;;12.80;78.30;;;;;;4945876;29;19915;-75
2023/04/11 13:11:04;;;;;;;;;;;12.80;76.30;;;;;;4947801;29;20097;-76
2023/04/11 13:13:30;;;;;;;;;;;13.00;76.80;;;;;;4945916;29;20607;-75
2023/04/11 13:15:56;;;;;;;;;;;13.30;73.90;;;;;;4930550;29;19973;-75
2023/04/11 13:18:21;;;;;;;;;;;13.40;75.30;;;;;;4916556;29;20543;-75
2023/04/11 13:20:47;;;;;;;;;;;13.20;75.40;;;;;;4947210;29;19911;-75
2023/04/11 13:23:14;;;;;;;;;;;12.90;76.10;;;;;;4913751;29;19922;-75
2023/04/11 13:25:39;;;;;;;;;;;12.90;76.60;;;;;;4911294;29;19910;-75
2023/04/11 13:28:05;;;;;;;;;;;13.00;76.80;;;;;;4927745;29;19921;-75
2023/04/11 13:30:31;;;;;;;;;;;13.00;76.70;;;;;;4936507;29;20303;-75
2023/04/11 13:32:58;;;;;;;;;;;13.40;74.30;;;;;;4942096;29;20075;-75
2023/04/11 13:35:24;;;;;;;;;;;13.50;76.80;;;;;;4911070;29;20075;-75
2023/04/11 13:37:50;;;;;;;;;;;13.50;76.40;;;;;;4917532;29;19949;-75
2023/04/11 13:40:16;;;;;;;;;;;13.70;78.60;;;;;;4919028;29;19914;-76
2023/04/11 13:42:43;;;;;;;;;;;13.70;76.60;;;;;;4890783;29;20642;-75
2023/04/11 13:45:09;;;;;;;;;;;12.80;77.70;;;;;;4925425;28;19914;-75
2023/04/11 13:47:36;;;;;;;;;;;12.40;80.60;;;;;;4944096;29;20323;-75
2023/04/11 13:50:03;;;;;;;;;;;12.20;82.50;;;;;;4956714;28;19921;-75
2023/04/11 13:52:29;;;;;;;;;;;11.90;85.80;;;;;;4941414;29;20375;-75
2023/04/11 13:54:56;;;;;;;;;;;11.70;90.20;;;;;;4928082;29;19918;-76
2023/04/11 13:57:23;;;;;;;;;;;10.80;94.70;;;;;;4961325;28;20316;-76
2023/04/11 13:59:49;;;;;;;;;;;9.70;99.40;;;;;;4926863;29;20061;-76
2023/04/11 14:02:15;;;;;;;;;;;9.10;99.90;;;;;;4899842;29;20291;-77
2023/04/11 14:04:41;;;;;;;;;;;8.80;99.90;;;;;;4925275;29;19945;-76
2023/04/11 14:07:07;;;;;;;;;;;8.50;99.90;;;;;;4895378;29;19911;-76
2023/04/11 14:09:32;;;;;;;;;;;8.60;99.90;;;;;;4929911;29;19944;-76
2023/04/11 14:11:58;;;;;;;;;;;8.20;99.90;;;;;;4968399;28;20344;-76
2023/04/11 14:14:24;;;;;;;;;;;8.20;99.90;;;;;;4945929;29;19915;-76
2023/04/11 14:16:50;;;;;;;;;;;8.10;99.90;;;;;;4895503;29;19926;-76
2023/04/11 14:19:15;;;;;;;;;;;8.00;99.90;;;;;;4932873;29;19919;-77
2023/04/11 14:21:41;;;;;;;;;;;8.00;99.90;;;;;;4915225;29;20225;-76